createdAt,value
2022-11-23T00:01:19.470Z,94005.63
2022-11-23T00:03:49.145Z,94012.84
2022-11-23T00:06:16.688Z,94008.84
2022-11-23T00:08:43.741Z,94011.03
2022-11-23T00:11:10.513Z,94016.25
2022-11-23T00:13:40.014Z,94016.91
2022-11-23T00:16:13.817Z,94013.47
2022-11-23T00:18:40.381Z,94005.38
2022-11-23T00:21:15.133Z,94009.31
2022-11-23T00:23:42.531Z,94010.22
2022-11-23T00:26:09.742Z,94008.59
2022-11-23T00:28:39.718Z,94011.94
2022-11-23T00:31:11.566Z,94012.91
2022-11-23T00:33:38.388Z,94020.16
2022-11-23T00:36:13.800Z,94012.75
2022-11-23T00:38:41.736Z,94011.13
2022-11-23T00:41:10.928Z,94018.34
2022-11-23T00:43:37.563Z,94010.66
2022-11-23T00:46:16.252Z,94018.63
2022-11-23T00:48:44.345Z,94009.38
2022-11-23T00:51:13.768Z,94015.16
2022-11-23T00:53:40.288Z,94015.78
2022-11-23T00:56:07.582Z,94003.53
2022-11-23T00:58:35.001Z,94002.28
2022-11-23T01:01:04.033Z,94011.72
2022-11-23T01:03:33.558Z,94004.91
2022-11-23T01:06:05.405Z,94007.88
2022-11-23T01:08:32.389Z,94010.56
2022-11-23T01:11:01.266Z,94009.94
2022-11-23T01:13:28.458Z,94008.03
2022-11-23T01:15:55.065Z,94012.09
2022-11-23T01:18:22.023Z,94016.50
2022-11-23T01:20:48.552Z,94026.72
2022-11-23T01:23:15.262Z,94022.50
2022-11-23T01:25:41.808Z,94017.88
2022-11-23T01:28:08.356Z,94020.25
2022-11-23T01:30:36.321Z,94020.72
2022-11-23T01:33:03.657Z,94022.59
2022-11-23T01:35:30.582Z,94022.88
2022-11-23T01:37:57.483Z,94029.28
2022-11-23T01:40:24.012Z,94030.19
2022-11-23T01:43:00.312Z,94029.44
2022-11-23T01:45:34.975Z,94021.53
2022-11-23T01:48:05.676Z,94029.75
2022-11-23T01:50:32.824Z,94033.28
2022-11-23T01:52:59.553Z,94035.88
2022-11-23T01:55:27.488Z,94042.47
2022-11-23T01:57:54.936Z,94044.97
2022-11-23T02:00:22.952Z,94042.56
2022-11-23T02:02:57.671Z,94053.28
2022-11-23T02:05:30.651Z,94046.25
2022-11-23T02:07:59.204Z,94046.41
2022-11-23T02:10:26.035Z,94043.63
2022-11-23T02:12:53.615Z,94052.13
2022-11-23T02:15:20.202Z,94037.53
2022-11-23T02:17:48.833Z,94047.16
2022-11-23T02:20:18.109Z,94049.16
2022-11-23T02:23:18.543Z,94040.13
2022-11-23T02:25:45.158Z,94039.06
2022-11-23T02:28:24.571Z,94035.53
2022-11-23T02:30:54.622Z,94031.38
2022-11-23T02:33:23.404Z,94031.38
2022-11-23T02:35:55.237Z,94038.41
2022-11-23T02:38:24.642Z,94037.69
2022-11-23T02:40:51.300Z,94038.31
2022-11-23T02:43:21.937Z,94032.56
2022-11-23T02:46:01.889Z,94032.38
2022-11-23T02:48:28.435Z,94036.78
2022-11-23T02:50:55.202Z,94033.63
2022-11-23T02:53:23.899Z,94031.00
2022-11-23T02:55:53.508Z,94034.25
2022-11-23T02:58:20.044Z,94035.59
2022-11-23T03:00:46.899Z,94034.34
2022-11-23T03:03:17.013Z,94040.72
2022-11-23T03:05:43.496Z,94041.28
2022-11-23T03:08:10.118Z,94045.69
2022-11-23T03:10:38.021Z,94050.19
2022-11-23T03:13:05.385Z,94051.81
2022-11-23T03:15:35.344Z,94043.03
2022-11-23T03:18:04.158Z,94050.06
2022-11-23T03:20:31.650Z,94052.31
2022-11-23T03:22:58.336Z,94051.84
2022-11-23T03:25:26.417Z,94054.47
2022-11-23T03:27:55.405Z,94052.13
2022-11-23T03:30:22.159Z,94050.59
2022-11-23T03:32:49.556Z,94047.69
2022-11-23T03:35:17.681Z,94046.41
2022-11-23T03:38:03.320Z,94047.31
2022-11-23T03:40:29.899Z,94043.16
2022-11-23T03:43:31.978Z,94043.91
2022-11-23T03:45:58.533Z,94039.75
2022-11-23T03:48:25.118Z,94038.56
2022-11-23T03:50:52.287Z,94032.91
2022-11-23T03:53:18.816Z,94040.84
2022-11-23T03:55:47.032Z,94032.25
2022-11-23T03:58:14.870Z,94035.53
2022-11-23T04:00:41.802Z,94036.22
2022-11-23T04:03:10.481Z,94027.56
2022-11-23T04:05:55.677Z,94035.03
2022-11-23T04:08:42.169Z,94031.88
2022-11-23T04:11:14.946Z,94037.44
2022-11-23T04:13:44.157Z,94035.66
2022-11-23T04:16:10.961Z,94036.16
2022-11-23T04:18:37.912Z,94037.69
2022-11-23T04:21:05.208Z,94038.34
2022-11-23T04:23:31.769Z,94034.28
2022-11-23T04:25:58.341Z,94036.88
2022-11-23T04:28:25.016Z,94030.09
2022-11-23T04:30:52.660Z,94038.75
2022-11-23T04:33:19.534Z,94036.25
2022-11-23T04:35:46.277Z,94030.22
2022-11-23T04:38:14.116Z,94030.50
2022-11-23T04:40:42.008Z,94028.22
2022-11-23T04:43:09.561Z,94033.28
2022-11-23T04:45:40.571Z,94037.03
2022-11-23T04:48:13.231Z,94030.78
2022-11-23T04:50:44.588Z,94026.38
2022-11-23T04:53:15.688Z,94025.38
2022-11-23T04:55:47.267Z,94022.31
2022-11-23T04:58:15.309Z,94020.50
2022-11-23T05:00:41.955Z,94021.78
2022-11-23T05:03:10.424Z,94020.50
2022-11-23T05:05:40.851Z,94016.56
2022-11-23T05:08:09.175Z,94016.00
2022-11-23T05:10:50.611Z,94012.44
2022-11-23T05:13:18.379Z,94008.53
2022-11-23T05:15:46.281Z,94007.09
2022-11-23T05:18:17.137Z,94015.03
2022-11-23T05:20:43.761Z,94011.97
2022-11-23T05:23:12.491Z,94007.84
2022-11-23T05:25:41.563Z,94011.06
2022-11-23T05:31:11.500Z,94008.38
2022-11-23T05:33:38.045Z,94010.25
2022-11-23T05:36:06.717Z,94008.03
2022-11-23T05:38:37.176Z,94011.06
2022-11-23T05:41:09.373Z,94014.16
2022-11-23T05:43:38.904Z,94011.59
2022-11-23T05:46:07.821Z,94017.22
2022-11-23T05:48:36.117Z,94006.84
2022-11-23T05:51:08.382Z,94012.34
2022-11-23T05:53:38.302Z,94007.75
2022-11-23T05:56:14.773Z,94009.00
2022-11-23T05:59:11.680Z,94012.00
2022-11-23T06:01:40.418Z,94004.78
2022-11-23T06:04:08.801Z,94001.56
2022-11-23T06:06:40.573Z,94004.59
2022-11-23T06:09:07.094Z,94001.38
2022-11-23T06:11:35.881Z,93998.13
2022-11-23T06:14:13.937Z,94006.84
2022-11-23T06:16:42.062Z,94008.47
2022-11-23T06:19:30.384Z,94002.34
2022-11-23T06:21:57.966Z,94009.31
2022-11-23T06:24:25.941Z,93999.84
2022-11-23T06:27:18.129Z,94011.63
2022-11-23T06:29:46.826Z,94005.69
2022-11-23T06:32:13.508Z,94007.50
2022-11-23T06:34:40.065Z,94010.22
2022-11-23T06:37:06.684Z,94017.88
2022-11-23T06:39:33.839Z,94013.19
2022-11-23T06:42:16.901Z,94012.66
2022-11-23T06:44:48.121Z,94015.25
2022-11-23T06:47:17.692Z,94014.63
2022-11-23T06:49:45.670Z,94016.31
2022-11-23T06:52:18.288Z,94016.03
2022-11-23T06:54:46.392Z,94023.31
2022-11-23T06:57:14.885Z,94019.72
2022-11-23T06:59:44.727Z,94026.94
2022-11-23T07:02:14.538Z,94022.72
2022-11-23T07:04:41.605Z,94024.88
2022-11-23T07:07:14.852Z,94024.69
2022-11-23T07:09:48.480Z,94034.25
2022-11-23T07:12:25.769Z,94038.84
2022-11-23T07:14:52.650Z,94040.56
2022-11-23T07:17:19.362Z,94035.16
2022-11-23T07:19:46.767Z,94041.75
2022-11-23T07:22:13.345Z,94039.59
2022-11-23T07:24:45.276Z,94047.50
2022-11-23T07:27:13.605Z,94045.72
2022-11-23T07:29:40.160Z,94049.41
2022-11-23T07:32:08.434Z,94058.78
2022-11-23T07:34:35.163Z,94061.78
2022-11-23T07:37:02.306Z,94060.16
2022-11-23T07:39:55.530Z,94056.78
2022-11-23T07:42:41.555Z,94070.44
2022-11-23T07:45:07.710Z,94068.63
2022-11-23T07:47:36.886Z,94077.38
2022-11-23T07:50:05.540Z,94071.44
2022-11-23T07:52:32.124Z,94063.28
2022-11-23T07:55:00.769Z,94070.38
2022-11-23T07:57:27.607Z,94072.44
2022-11-23T07:59:54.187Z,94076.16
2022-11-23T08:02:21.142Z,94073.41
2022-11-23T08:04:47.919Z,94068.06
2022-11-23T08:07:14.455Z,94075.81
2022-11-23T08:09:41.093Z,94079.06
2022-11-23T08:12:07.731Z,94081.44
2022-11-23T08:14:34.878Z,94081.59
2022-11-23T08:17:01.774Z,94083.13
2022-11-23T08:19:28.276Z,94090.47
2022-11-23T08:21:54.779Z,94093.16
2022-11-23T08:24:21.278Z,94092.28
2022-11-23T08:26:47.818Z,94088.50
2022-11-23T08:29:14.555Z,94090.13
2022-11-23T08:31:41.315Z,94088.41
2022-11-23T08:34:08.009Z,94082.06
2022-11-23T08:36:34.531Z,94082.34
2022-11-23T08:39:01.093Z,94089.19
2022-11-23T08:41:27.716Z,94086.97
2022-11-23T08:43:54.222Z,94084.94
2022-11-23T08:46:20.998Z,94083.88
2022-11-23T08:48:47.515Z,94077.56
2022-11-23T08:51:14.312Z,94080.16
2022-11-23T08:53:40.843Z,94085.44
2022-11-23T08:56:07.887Z,94082.09
2022-11-23T08:58:34.605Z,94083.78
2022-11-23T09:01:01.102Z,94083.91
2022-11-23T09:03:27.599Z,94080.97
2022-11-23T09:05:54.673Z,94086.50
2022-11-23T09:08:21.242Z,94083.56
2022-11-23T09:10:47.777Z,94085.06
2022-11-23T09:13:14.305Z,94079.06
2022-11-23T09:15:40.859Z,94079.66
2022-11-23T09:18:07.473Z,94080.69
2022-11-23T09:20:34.270Z,94079.09
2022-11-23T09:23:00.811Z,94076.97
2022-11-23T09:25:27.364Z,94074.75
2022-11-23T09:27:58.671Z,94073.53
2022-11-23T09:30:25.995Z,94066.97
2022-11-23T09:32:52.565Z,94070.09
2022-11-23T09:35:19.067Z,94067.13
2022-11-23T09:37:45.592Z,94066.97
2022-11-23T09:40:17.152Z,94064.41
2022-11-23T09:43:05.058Z,94075.28
2022-11-23T09:45:56.572Z,94068.31
2022-11-23T09:48:27.417Z,94069.78
2022-11-23T09:51:04.139Z,94067.41
2022-11-23T09:53:41.125Z,94067.41
2022-11-23T09:56:27.223Z,94063.97
2022-11-23T09:58:57.526Z,94070.84
2022-11-23T10:01:25.112Z,94053.25
2022-11-23T10:03:51.683Z,94061.53
2022-11-23T10:06:25.653Z,94061.88
2022-11-23T10:08:57.593Z,94057.84
2022-11-23T10:11:43.007Z,94058.38
2022-11-23T10:14:12.510Z,94048.81
2022-11-23T10:16:45.556Z,94062.44
2022-11-23T10:19:34.840Z,94051.22
2022-11-23T10:22:14.555Z,94042.44
2022-11-23T10:24:47.873Z,94044.81
2022-11-23T10:27:18.231Z,94044.50
2022-11-23T10:29:45.236Z,94036.28
2022-11-23T10:32:50.549Z,94037.63
2022-11-23T10:35:20.983Z,94025.31
2022-11-23T10:37:47.619Z,94026.63
2022-11-23T10:40:22.106Z,94014.38
2022-11-23T10:42:56.140Z,94011.88
2022-11-23T10:45:25.514Z,94011.00
2022-11-23T10:47:59.289Z,94007.19
2022-11-23T10:50:40.763Z,94004.34
2022-11-23T10:53:08.412Z,94013.50
2022-11-23T10:55:57.949Z,94008.84
2022-11-23T10:58:35.934Z,94012.38
2022-11-23T11:01:05.367Z,94002.69
2022-11-23T11:03:34.105Z,94007.38
2022-11-23T11:06:10.165Z,94008.69
2022-11-23T11:09:03.560Z,94012.13
2022-11-23T11:11:37.406Z,94009.69
2022-11-23T11:14:23.627Z,94010.94
2022-11-23T11:16:55.357Z,94008.53
2022-11-23T11:19:34.769Z,94004.28
2022-11-23T11:22:04.957Z,94003.75
2022-11-23T11:24:43.326Z,94007.91
2022-11-23T11:27:16.842Z,94007.13
2022-11-23T11:29:43.493Z,93998.56
2022-11-23T11:32:13.798Z,94000.91
2022-11-23T11:34:54.672Z,94003.03
2022-11-23T11:37:47.337Z,93998.69
2022-11-23T11:40:28.782Z,93998.78
2022-11-23T11:43:07.279Z,93999.88
2022-11-23T11:45:39.204Z,94004.25
2022-11-23T11:48:15.212Z,94003.56
2022-11-23T11:50:49.739Z,93993.91
2022-11-23T11:53:22.249Z,93986.34
2022-11-23T11:56:04.446Z,93980.13
2022-11-23T11:58:32.700Z,93977.13
2022-11-23T12:01:20.652Z,93980.22
2022-11-23T12:03:54.055Z,93976.78
2022-11-23T12:06:28.002Z,93987.72
2022-11-23T12:09:09.282Z,93974.72
2022-11-23T12:11:36.771Z,93969.56
2022-11-23T12:14:05.996Z,93969.06
2022-11-23T12:17:04.110Z,93965.56
2022-11-23T12:20:02.482Z,93961.75
2022-11-23T12:22:47.733Z,93964.03
2022-11-23T12:25:33.337Z,93956.16
2022-11-23T12:28:27.335Z,93956.53
2022-11-23T12:31:03.068Z,93956.97
2022-11-23T12:33:38.915Z,93949.53
2022-11-23T12:36:33.363Z,93951.94
2022-11-23T12:39:18.589Z,93947.56
2022-11-23T12:41:47.925Z,93946.00
2022-11-23T12:44:39.914Z,93950.44
2022-11-23T12:47:23.836Z,93953.13
2022-11-23T12:49:59.355Z,93948.75
2022-11-23T12:53:16.309Z,93951.34
2022-11-23T12:56:14.224Z,93960.50
2022-11-23T12:58:42.693Z,93962.50
2022-11-23T13:01:25.148Z,93960.50
2022-11-23T13:04:29.071Z,93960.13
2022-11-23T13:07:31.687Z,93967.59
2022-11-23T13:10:38.803Z,93955.53
2022-11-23T13:13:33.045Z,93950.34
2022-11-23T13:16:25.080Z,93949.75
2022-11-23T13:19:08.885Z,93944.13
2022-11-23T13:21:44.081Z,93945.03
2022-11-23T13:24:29.496Z,93953.81
2022-11-23T13:27:31.830Z,93954.34
2022-11-23T13:30:01.006Z,93958.38
2022-11-23T13:32:39.701Z,93964.09
2022-11-23T13:35:21.225Z,93972.44
2022-11-23T13:37:56.967Z,93964.78
2022-11-23T13:40:29.238Z,93963.88
2022-11-23T13:43:18.301Z,93959.19
2022-11-23T13:45:45.563Z,93951.03
2022-11-23T13:48:49.070Z,93946.81
2022-11-23T13:51:05.186Z,93948.25
2022-11-23T13:53:42.969Z,93935.06
2022-11-23T13:56:27.053Z,93935.88
2022-11-23T13:59:24.733Z,93938.34
2022-11-23T14:02:16.885Z,93934.97
2022-11-23T14:04:46.954Z,93936.94
2022-11-23T14:07:25.397Z,93933.69
2022-11-23T14:09:57.716Z,93935.38
2022-11-23T14:12:42.420Z,93935.53
2022-11-23T14:15:21.290Z,93934.34
2022-11-23T14:18:23.189Z,93938.75
2022-11-23T14:21:11.639Z,93942.50
2022-11-23T14:24:25.953Z,93943.25
2022-11-23T14:27:39.069Z,93941.38
2022-11-23T14:30:04.384Z,93948.16
2022-11-23T14:33:02.104Z,93950.97
2022-11-23T14:35:41.293Z,93945.84
2022-11-23T14:38:32.112Z,93941.69
2022-11-23T14:41:16.412Z,93942.06
2022-11-23T14:43:44.723Z,93944.81
2022-11-23T14:46:18.997Z,93945.06
2022-11-23T14:48:47.052Z,93937.81
2022-11-23T14:51:19.852Z,93950.16
2022-11-23T14:53:53.303Z,93952.53
2022-11-23T14:56:29.862Z,93949.59
2022-11-23T14:59:08.217Z,93954.72
2022-11-23T15:01:39.234Z,93954.63
2022-11-23T15:04:22.125Z,93953.84
2022-11-23T15:06:53.276Z,93951.59
2022-11-23T15:09:43.301Z,93955.44
2022-11-23T15:12:24.909Z,93954.47
2022-11-23T15:14:53.779Z,93954.34
2022-11-23T15:17:21.987Z,93960.91
2022-11-23T15:20:01.528Z,93954.63
2022-11-23T15:22:29.160Z,93951.66
2022-11-23T15:25:07.964Z,93952.25
2022-11-23T15:27:39.715Z,93953.25
2022-11-23T15:30:21.108Z,93957.69
2022-11-23T15:33:02.227Z,93953.03
2022-11-23T15:35:33.187Z,93954.44
2022-11-23T15:38:01.093Z,93959.28
2022-11-23T15:40:32.412Z,93954.59
2022-11-23T15:42:59.200Z,93954.78
2022-11-23T15:45:45.012Z,93955.78
2022-11-23T15:48:14.558Z,93961.81
2022-11-23T15:50:53.820Z,93965.03
2022-11-23T15:53:50.915Z,93965.59
2022-11-23T15:56:36.115Z,93963.75
2022-11-23T15:59:15.261Z,93956.44
2022-11-23T16:01:43.615Z,93960.44
2022-11-23T16:04:44.040Z,93956.97
2022-11-23T16:07:25.142Z,93957.34
2022-11-23T16:10:06.443Z,93964.78
2022-11-23T16:12:34.432Z,93964.13
2022-11-23T16:15:32.343Z,93956.81
2022-11-23T16:18:00.024Z,93960.22
2022-11-23T16:20:27.708Z,93964.44
2022-11-23T16:22:56.730Z,93967.41
2022-11-23T16:25:26.270Z,93966.44
2022-11-23T16:28:02.851Z,93970.41
2022-11-23T16:30:37.790Z,93977.09
2022-11-23T16:33:05.312Z,93963.91
2022-11-23T16:35:31.974Z,93967.72
2022-11-23T16:37:58.513Z,93974.97
2022-11-23T16:40:25.260Z,93969.28
2022-11-23T16:42:53.163Z,93975.72
2022-11-23T16:45:20.076Z,93974.94
2022-11-23T16:47:57.351Z,93972.75
2022-11-23T16:50:24.335Z,93972.75
2022-11-23T16:52:51.440Z,93972.72
2022-11-23T16:55:18.152Z,93963.56
2022-11-23T16:57:45.717Z,93972.03
2022-11-23T17:00:17.171Z,93971.19
2022-11-23T17:02:43.985Z,93962.50
2022-11-23T17:05:21.239Z,93963.53
2022-11-23T17:07:48.029Z,93963.75
2022-11-23T17:10:15.096Z,93967.38
2022-11-23T17:12:50.421Z,93968.56
2022-11-23T17:15:19.071Z,93969.53
2022-11-23T17:17:45.606Z,93971.38
2022-11-23T17:20:13.541Z,93962.09
2022-11-23T17:22:40.368Z,93957.94
2022-11-23T17:25:14.286Z,93965.34
2022-11-23T17:27:42.183Z,93967.53
2022-11-23T17:30:16.701Z,93969.09
2022-11-23T17:32:43.371Z,93974.69
2022-11-23T17:35:10.011Z,93963.41
2022-11-23T17:37:37.034Z,93974.22
2022-11-23T17:40:04.118Z,93980.38
2022-11-23T17:42:30.654Z,93976.69
2022-11-23T17:44:57.278Z,93992.38
2022-11-23T17:47:28.553Z,93987.81
2022-11-23T17:49:55.860Z,93999.28
2022-11-23T17:52:23.261Z,93992.41
2022-11-23T17:54:50.346Z,93992.78
2022-11-23T17:57:20.002Z,93996.00
2022-11-23T17:59:46.824Z,93992.31
2022-11-23T18:02:13.663Z,93995.13
2022-11-23T18:04:57.224Z,93995.75
2022-11-23T18:07:33.102Z,94003.69
2022-11-23T18:09:59.677Z,93996.41
2022-11-23T18:12:26.205Z,93995.97
2022-11-23T18:14:52.719Z,94003.63
2022-11-23T18:17:22.193Z,94003.56
2022-11-23T18:19:48.977Z,93997.31
2022-11-23T18:22:15.520Z,94007.22
2022-11-23T18:24:42.031Z,94012.66
2022-11-23T18:27:08.574Z,94018.09
2022-11-23T18:29:36.433Z,94017.94
2022-11-23T18:32:04.406Z,94029.00
2022-11-23T18:34:31.024Z,94035.25
2022-11-23T18:36:57.535Z,94036.75
2022-11-23T18:39:24.093Z,94038.00
2022-11-23T18:41:50.611Z,94050.38
2022-11-23T18:44:17.197Z,94044.34
2022-11-23T18:46:45.677Z,94049.31
2022-11-23T18:49:12.304Z,94052.75
2022-11-23T18:51:38.921Z,94054.03
2022-11-23T18:54:05.487Z,94066.16
2022-11-23T18:56:32.300Z,94072.72
2022-11-23T18:58:58.814Z,94072.63
2022-11-23T19:01:25.433Z,94080.66
2022-11-23T19:03:53.108Z,94080.72
2022-11-23T19:06:23.014Z,94088.47
2022-11-23T19:08:53.482Z,94102.56
2022-11-23T19:11:22.457Z,94114.78
2022-11-23T19:13:51.515Z,94122.56
2022-11-23T19:16:30.361Z,94126.75
2022-11-23T19:19:06.074Z,94126.69
2022-11-23T19:21:35.358Z,94134.44
2022-11-23T19:24:02.490Z,94137.34
2022-11-23T19:26:30.269Z,94139.16
2022-11-23T19:28:58.398Z,94151.97
2022-11-23T19:31:27.199Z,94165.44
2022-11-23T19:33:57.800Z,94167.50
2022-11-23T19:36:25.764Z,94176.09
2022-11-23T19:38:52.824Z,94180.78
2022-11-23T19:41:23.048Z,94188.91
2022-11-23T19:43:53.650Z,94195.31
2022-11-23T19:46:20.638Z,94200.16
2022-11-23T19:48:47.949Z,94202.69
2022-11-23T19:51:19.769Z,94208.88
2022-11-23T19:53:47.953Z,94217.97
2022-11-23T19:56:17.189Z,94214.06
2022-11-23T19:58:44.303Z,94222.38
2022-11-23T20:01:15.698Z,94229.22
2022-11-23T20:03:44.970Z,94226.97
2022-11-23T20:06:19.024Z,94235.75
2022-11-23T20:08:45.626Z,94239.97
2022-11-23T20:11:14.921Z,94247.28
2022-11-23T20:13:41.998Z,94249.47
2022-11-23T20:16:11.253Z,94259.81
2022-11-23T20:18:38.303Z,94268.59
2022-11-23T20:21:09.898Z,94277.28
2022-11-23T20:23:36.620Z,94271.25
2022-11-23T20:26:03.129Z,94286.91
2022-11-23T20:28:29.703Z,94289.88
2022-11-23T20:30:56.287Z,94290.41
2022-11-23T20:33:22.820Z,94293.09
2022-11-23T20:35:49.578Z,94301.72
2022-11-23T20:38:17.533Z,94303.66
2022-11-23T20:40:44.054Z,94299.34
2022-11-23T20:43:10.564Z,94300.97
2022-11-23T20:45:37.091Z,94298.69
2022-11-23T20:48:03.679Z,94312.97
2022-11-23T20:50:30.231Z,94313.72
2022-11-23T20:53:03.586Z,94325.53
2022-11-23T20:55:31.869Z,94333.81
2022-11-23T20:57:58.581Z,94333.13
2022-11-23T21:00:25.117Z,94342.41
2022-11-23T21:02:53.299Z,94341.41
2022-11-23T21:05:20.608Z,94344.97
2022-11-23T21:07:48.334Z,94340.13
2022-11-23T21:10:34.632Z,94353.34
2022-11-23T21:13:20.622Z,94330.97
2022-11-23T21:15:47.304Z,94340.13
2022-11-23T21:18:14.340Z,94335.88
2022-11-23T21:20:43.117Z,94339.28
2022-11-23T21:23:09.698Z,94333.28
2022-11-23T21:25:36.328Z,94340.91
2022-11-23T21:28:03.286Z,94339.41
2022-11-23T21:30:30.650Z,94334.81
2022-11-23T21:32:57.464Z,94339.41
2022-11-23T21:35:24.045Z,94341.50
2022-11-23T21:37:50.556Z,94344.16
2022-11-23T21:40:17.100Z,94332.69
2022-11-23T21:42:44.673Z,94338.28
2022-11-23T21:45:11.384Z,94345.56
2022-11-23T21:47:37.898Z,94348.19
2022-11-23T21:50:04.867Z,94345.81
2022-11-23T21:52:31.433Z,94344.00
2022-11-23T21:54:57.937Z,94335.63
2022-11-23T21:57:24.425Z,94343.31
2022-11-23T21:59:50.998Z,94339.53
2022-11-23T22:02:17.596Z,94347.22
2022-11-23T22:04:44.196Z,94340.34
2022-11-23T22:07:10.754Z,94350.78
2022-11-23T22:09:38.116Z,94357.31
2022-11-23T22:12:04.689Z,94364.97
2022-11-23T22:14:32.001Z,94362.75
2022-11-23T22:16:59.077Z,94364.69
2022-11-23T22:19:25.624Z,94367.53
2022-11-23T22:21:52.122Z,94360.59
2022-11-23T22:24:19.892Z,94373.34
2022-11-23T22:26:46.511Z,94368.44
2022-11-23T22:29:13.202Z,94371.75
2022-11-23T22:31:40.157Z,94375.69
2022-11-23T22:34:10.009Z,94368.06
2022-11-23T22:36:36.630Z,94380.09
2022-11-23T22:39:05.310Z,94380.41
2022-11-23T22:41:37.320Z,94380.88
2022-11-23T22:44:09.097Z,94387.22
2022-11-23T22:46:36.313Z,94381.38
2022-11-23T22:49:03.006Z,94382.69
2022-11-23T22:51:30.016Z,94382.22
2022-11-23T22:53:58.899Z,94389.16
2022-11-23T22:56:26.528Z,94403.22
2022-11-23T22:58:53.040Z,94399.97
2022-11-23T23:01:22.621Z,94425.19
2022-11-23T23:03:53.360Z,94417.97
2022-11-23T23:06:21.706Z,94421.81
2022-11-23T23:08:52.325Z,94429.84
2022-11-23T23:11:18.864Z,94435.59
2022-11-23T23:13:45.371Z,94441.31
2022-11-23T23:16:13.108Z,94438.44
2022-11-23T23:18:43.252Z,94437.81
2022-11-23T23:21:12.303Z,94452.97
2022-11-23T23:23:39.553Z,94447.91
2022-11-23T23:26:06.193Z,94448.94
2022-11-23T23:28:33.482Z,94452.31
2022-11-23T23:31:05.476Z,94461.00
2022-11-23T23:33:33.377Z,94458.41
2022-11-23T23:36:05.273Z,94468.69
2022-11-23T23:38:32.619Z,94476.81
2022-11-23T23:40:59.546Z,94483.63
2022-11-23T23:43:26.404Z,94484.91
2022-11-23T23:45:57.398Z,94488.06
2022-11-23T23:48:23.924Z,94490.97
2022-11-23T23:50:50.494Z,94488.78
2022-11-23T23:53:17.316Z,94494.78
2022-11-23T23:55:43.834Z,94499.69
2022-11-23T23:58:10.326Z,94501.97
